Terminal Aerodrome Forecast
Issued by NWS

Home | Current Version | Previous Version | Text Only | Print | Product List | Glossary On
Versions: 1 2 3 4 5 6 7 8 9 10 11 12 13 14
000
FTUS43 KDTX 290522
TAFMBS
TAF
KMBS 290522Z 2906/3006 16010KT P6SM OVC100
     FM291000 16013G19KT 3SM -SN BKN040 OVC060
     FM291200 17012KT 1SM -SN BR BKN008 OVC018
     FM291500 21010KT 2SM -SN BR BKN005 OVC015
     FM291900 30014G25KT 3SM -SHSN BKN012 OVC025
     FM300100 31018G30KT 6SM -SN BKN025 OVC040=

USA.gov is the U.S. government's official web portal to all federal, state and local government web resources and services.